sensor_id;sensor_type;location;lat;lon;timestamp;pressure;altitude;pressure_sealevel;temperature;humidity
47983;BME280;33751;50.816;-1.214;2023-04-28T00:02:20;100800.87;;;25.52;100.00
47983;BME280;33751;50.816;-1.214;2023-04-28T00:04:46;100799.04;;;25.17;100.00
47983;BME280;33751;50.816;-1.214;2023-04-28T00:07:13;100793.91;;;25.74;100.00
47983;BME280;33751;50.816;-1.214;2023-04-28T00:09:40;100790.13;;;25.63;100.00
47983;BME280;33751;50.816;-1.214;2023-04-28T00:12:07;100784.02;;;25.91;100.00
47983;BME280;33751;50.816;-1.214;2023-04-28T00:14:33;100783.26;;;25.66;100.00
47983;BME280;33751;50.816;-1.214;2023-04-28T00:17:00;100780.90;;;25.86;100.00
47983;BME280;33751;50.816;-1.214;2023-04-28T00:19:26;100781.08;;;25.25;100.00
47983;BME280;33751;50.816;-1.214;2023-04-28T00:21:53;100783.28;;;25.57;100.00
47983;BME280;33751;50.816;-1.214;2023-04-28T00:24:20;100787.34;;;25.62;100.00
47983;BME280;33751;50.816;-1.214;2023-04-28T00:26:47;100785.96;;;25.52;100.00
47983;BME280;33751;50.816;-1.214;2023-04-28T00:29:13;100784.55;;;25.49;100.00
47983;BME280;33751;50.816;-1.214;2023-04-28T00:31:40;100783.67;;;25.24;100.00
47983;BME280;33751;50.816;-1.214;2023-04-28T00:34:07;100781.18;;;25.68;100.00
47983;BME280;33751;50.816;-1.214;2023-04-28T00:36:33;100779.46;;;25.67;100.00
47983;BME280;33751;50.816;-1.214;2023-04-28T00:39:00;100784.33;;;25.27;100.00
47983;BME280;33751;50.816;-1.214;2023-04-28T00:41:26;100781.83;;;25.22;100.00
47983;BME280;33751;50.816;-1.214;2023-04-28T00:43:53;100776.83;;;25.75;100.00
47983;BME280;33751;50.816;-1.214;2023-04-28T00:46:22;100779.08;;;25.72;100.00
47983;BME280;33751;50.816;-1.214;2023-04-28T00:48:49;100771.44;;;25.53;100.00
47983;BME280;33751;50.816;-1.214;2023-04-28T00:51:17;100770.88;;;25.80;100.00
47983;BME280;33751;50.816;-1.214;2023-04-28T00:53:43;100772.19;;;25.44;100.00
47983;BME280;33751;50.816;-1.214;2023-04-28T00:56:11;100772.50;;;25.52;100.00
47983;BME280;33751;50.816;-1.214;2023-04-28T00:58:37;100777.88;;;25.80;100.00
47983;BME280;33751;50.816;-1.214;2023-04-28T01:01:04;100781.54;;;25.77;100.00
47983;BME280;33751;50.816;-1.214;2023-04-28T01:03:33;100778.68;;;25.51;100.00
47983;BME280;33751;50.816;-1.214;2023-04-28T01:06:00;100775.16;;;25.69;100.00
47983;BME280;33751;50.816;-1.214;2023-04-28T01:08:29;100781.88;;;25.05;100.00
47983;BME280;33751;50.816;-1.214;2023-04-28T01:10:56;100778.03;;;25.74;100.00
47983;BME280;33751;50.816;-1.214;2023-04-28T01:13:23;100781.41;;;25.47;100.00
47983;BME280;33751;50.816;-1.214;2023-04-28T01:15:50;100782.51;;;25.65;100.00
47983;BME280;33751;50.816;-1.214;2023-04-28T01:18:18;100781.03;;;25.34;100.00
47983;BME280;33751;50.816;-1.214;2023-04-28T01:20:45;100780.18;;;25.81;100.00
47983;BME280;33751;50.816;-1.214;2023-04-28T01:23:13;100788.57;;;25.50;100.00
47983;BME280;33751;50.816;-1.214;2023-04-28T01:25:40;100786.60;;;25.70;100.00
47983;BME280;33751;50.816;-1.214;2023-04-28T01:28:07;100786.40;;;25.82;100.00
47983;BME280;33751;50.816;-1.214;2023-04-28T01:30:34;100787.84;;;25.43;100.00
47983;BME280;33751;50.816;-1.214;2023-04-28T01:33:02;100785.11;;;25.68;100.00
47983;BME280;33751;50.816;-1.214;2023-04-28T01:35:29;100789.45;;;25.61;100.00
47983;BME280;33751;50.816;-1.214;2023-04-28T01:37:56;100793.12;;;25.30;100.00
47983;BME280;33751;50.816;-1.214;2023-04-28T01:40:23;100793.48;;;25.73;100.00
47983;BME280;33751;50.816;-1.214;2023-04-28T01:42:49;100796.43;;;25.35;100.00
47983;BME280;33751;50.816;-1.214;2023-04-28T01:45:16;100792.49;;;25.47;100.00
47983;BME280;33751;50.816;-1.214;2023-04-28T01:47:42;100792.82;;;25.23;100.00
47983;BME280;33751;50.816;-1.214;2023-04-28T01:50:09;100792.72;;;25.51;100.00
47983;BME280;33751;50.816;-1.214;2023-04-28T01:52:36;100787.80;;;25.28;100.00
47983;BME280;33751;50.816;-1.214;2023-04-28T01:55:04;100789.30;;;25.32;100.00
47983;BME280;33751;50.816;-1.214;2023-04-28T01:57:30;100789.27;;;25.23;100.00
47983;BME280;33751;50.816;-1.214;2023-04-28T01:59:57;100788.86;;;25.24;100.00
47983;BME280;33751;50.816;-1.214;2023-04-28T02:02:23;100785.37;;;25.68;100.00
47983;BME280;33751;50.816;-1.214;2023-04-28T02:04:50;100786.65;;;25.65;100.00
47983;BME280;33751;50.816;-1.214;2023-04-28T02:07:16;100784.44;;;25.26;100.00
47983;BME280;33751;50.816;-1.214;2023-04-28T02:09:42;100782.36;;;25.49;100.00
47983;BME280;33751;50.816;-1.214;2023-04-28T02:12:09;100789.43;;;25.40;100.00
47983;BME280;33751;50.816;-1.214;2023-04-28T02:14:36;100790.26;;;25.15;100.00
47983;BME280;33751;50.816;-1.214;2023-04-28T02:17:02;100794.61;;;25.16;100.00
47983;BME280;33751;50.816;-1.214;2023-04-28T02:19:29;100798.40;;;25.00;100.00
47983;BME280;33751;50.816;-1.214;2023-04-28T02:21:55;100796.94;;;25.27;100.00
47983;BME280;33751;50.816;-1.214;2023-04-28T02:24:21;100798.60;;;25.55;100.00
47983;BME280;33751;50.816;-1.214;2023-04-28T02:26:48;100802.90;;;25.47;100.00
47983;BME280;33751;50.816;-1.214;2023-04-28T02:29:15;100802.45;;;25.35;100.00
47983;BME280;33751;50.816;-1.214;2023-04-28T02:31:41;100807.55;;;25.52;100.00
47983;BME280;33751;50.816;-1.214;2023-04-28T02:34:08;100809.51;;;25.53;100.00
47983;BME280;33751;50.816;-1.214;2023-04-28T02:36:34;100811.16;;;25.19;100.00
47983;BME280;33751;50.816;-1.214;2023-04-28T02:39:01;100802.71;;;25.60;100.00
47983;BME280;33751;50.816;-1.214;2023-04-28T02:41:27;100798.49;;;25.33;100.00
47983;BME280;33751;50.816;-1.214;2023-04-28T02:43:54;100797.29;;;25.60;100.00
47983;BME280;33751;50.816;-1.214;2023-04-28T02:46:20;100794.24;;;25.52;100.00
47983;BME280;33751;50.816;-1.214;2023-04-28T02:48:47;100790.06;;;25.49;100.00
47983;BME280;33751;50.816;-1.214;2023-04-28T02:51:13;100793.19;;;25.53;100.00
47983;BME280;33751;50.816;-1.214;2023-04-28T02:53:40;100791.23;;;25.48;100.00
47983;BME280;33751;50.816;-1.214;2023-04-28T02:56:06;100785.12;;;25.45;100.00
47983;BME280;33751;50.816;-1.214;2023-04-28T02:58:33;100789.09;;;25.37;100.00
47983;BME280;33751;50.816;-1.214;2023-04-28T03:00:59;100789.42;;;25.90;100.00
47983;BME280;33751;50.816;-1.214;2023-04-28T03:03:25;100788.88;;;25.45;100.00
47983;BME280;33751;50.816;-1.214;2023-04-28T03:05:52;100794.69;;;25.36;100.00
47983;BME280;33751;50.816;-1.214;2023-04-28T03:08:19;100794.18;;;25.29;100.00
47983;BME280;33751;50.816;-1.214;2023-04-28T03:10:46;100796.59;;;25.01;100.00
47983;BME280;33751;50.816;-1.214;2023-04-28T03:13:12;100793.27;;;25.39;100.00
47983;BME280;33751;50.816;-1.214;2023-04-28T03:15:39;100799.02;;;25.38;100.00
47983;BME280;33751;50.816;-1.214;2023-04-28T03:18:05;100795.03;;;25.49;100.00
47983;BME280;33751;50.816;-1.214;2023-04-28T03:20:32;100793.55;;;25.55;100.00
47983;BME280;33751;50.816;-1.214;2023-04-28T03:22:59;100789.58;;;25.47;100.00
47983;BME280;33751;50.816;-1.214;2023-04-28T03:25:26;100794.05;;;25.31;100.00
47983;BME280;33751;50.816;-1.214;2023-04-28T03:27:52;100793.90;;;25.49;100.00
47983;BME280;33751;50.816;-1.214;2023-04-28T03:30:19;100792.42;;;25.31;100.00
47983;BME280;33751;50.816;-1.214;2023-04-28T03:32:45;100791.49;;;25.44;100.00
47983;BME280;33751;50.816;-1.214;2023-04-28T03:35:12;100788.35;;;25.41;100.00
47983;BME280;33751;50.816;-1.214;2023-04-28T03:37:38;100793.77;;;25.34;100.00
47983;BME280;33751;50.816;-1.214;2023-04-28T03:40:06;100793.57;;;25.11;100.00
47983;BME280;33751;50.816;-1.214;2023-04-28T03:42:33;100800.90;;;25.13;100.00
47983;BME280;33751;50.816;-1.214;2023-04-28T03:44:59;100803.93;;;25.25;100.00
47983;BME280;33751;50.816;-1.214;2023-04-28T03:47:26;100807.64;;;24.68;100.00
47983;BME280;33751;50.816;-1.214;2023-04-28T03:49:52;100813.53;;;25.14;100.00
47983;BME280;33751;50.816;-1.214;2023-04-28T03:52:19;100811.32;;;25.13;100.00
47983;BME280;33751;50.816;-1.214;2023-04-28T03:54:46;100812.31;;;25.10;100.00
47983;BME280;33751;50.816;-1.214;2023-04-28T03:57:12;100811.83;;;25.15;100.00
47983;BME280;33751;50.816;-1.214;2023-04-28T03:59:39;100816.07;;;25.19;100.00
47983;BME280;33751;50.816;-1.214;2023-04-28T04:02:05;100823.47;;;24.97;100.00
47983;BME280;33751;50.816;-1.214;2023-04-28T04:04:32;100821.86;;;24.99;100.00
47983;BME280;33751;50.816;-1.214;2023-04-28T04:06:59;100822.48;;;24.75;100.00
47983;BME280;33751;50.816;-1.214;2023-04-28T04:09:26;100824.13;;;25.02;100.00
47983;BME280;33751;50.816;-1.214;2023-04-28T04:11:53;100822.99;;;25.06;100.00
47983;BME280;33751;50.816;-1.214;2023-04-28T04:14:19;100820.39;;;25.15;100.00
47983;BME280;33751;50.816;-1.214;2023-04-28T04:16:46;100816.81;;;24.92;100.00
47983;BME280;33751;50.816;-1.214;2023-04-28T04:19:13;100815.45;;;25.11;100.00
47983;BME280;33751;50.816;-1.214;2023-04-28T04:21:39;100819.44;;;24.93;100.00
47983;BME280;33751;50.816;-1.214;2023-04-28T04:24:06;100819.75;;;25.15;100.00
47983;BME280;33751;50.816;-1.214;2023-04-28T04:26:33;100816.47;;;25.17;100.00
47983;BME280;33751;50.816;-1.214;2023-04-28T04:29:00;100819.08;;;25.05;100.00
47983;BME280;33751;50.816;-1.214;2023-04-28T04:31:26;100821.19;;;24.84;100.00
47983;BME280;33751;50.816;-1.214;2023-04-28T04:33:53;100825.65;;;25.19;100.00
47983;BME280;33751;50.816;-1.214;2023-04-28T04:36:19;100828.57;;;25.13;100.00
47983;BME280;33751;50.816;-1.214;2023-04-28T04:38:46;100832.13;;;25.08;100.00
47983;BME280;33751;50.816;-1.214;2023-04-28T04:41:12;100831.99;;;25.19;100.00
47983;BME280;33751;50.816;-1.214;2023-04-28T04:43:39;100835.90;;;25.48;100.00
47983;BME280;33751;50.816;-1.214;2023-04-28T04:46:06;100839.40;;;25.07;100.00
47983;BME280;33751;50.816;-1.214;2023-04-28T04:48:34;100839.98;;;25.07;100.00
47983;BME280;33751;50.816;-1.214;2023-04-28T04:51:01;100844.53;;;25.15;100.00
47983;BME280;33751;50.816;-1.214;2023-04-28T04:53:28;100847.86;;;25.19;100.00
47983;BME280;33751;50.816;-1.214;2023-04-28T04:55:55;100846.65;;;25.02;100.00
47983;BME280;33751;50.816;-1.214;2023-04-28T04:58:22;100847.32;;;25.00;100.00
47983;BME280;33751;50.816;-1.214;2023-04-28T05:00:49;100845.68;;;24.87;100.00
47983;BME280;33751;50.816;-1.214;2023-04-28T05:03:16;100850.59;;;25.49;100.00
47983;BME280;33751;50.816;-1.214;2023-04-28T05:05:42;100847.03;;;25.19;100.00
47983;BME280;33751;50.816;-1.214;2023-04-28T05:08:09;100848.28;;;25.14;100.00
47983;BME280;33751;50.816;-1.214;2023-04-28T05:10:36;100850.68;;;25.05;100.00
47983;BME280;33751;50.816;-1.214;2023-04-28T05:13:03;100850.76;;;25.22;100.00
47983;BME280;33751;50.816;-1.214;2023-04-28T05:15:30;100852.45;;;25.22;100.00
47983;BME280;33751;50.816;-1.214;2023-04-28T05:17:57;100853.38;;;25.29;100.00
47983;BME280;33751;50.816;-1.214;2023-04-28T05:20:24;100858.13;;;25.15;100.00
47983;BME280;33751;50.816;-1.214;2023-04-28T05:22:52;100862.74;;;25.45;100.00
47983;BME280;33751;50.816;-1.214;2023-04-28T05:25:19;100863.87;;;25.09;100.00
47983;BME280;33751;50.816;-1.214;2023-04-28T05:27:45;100865.95;;;25.05;100.00
47983;BME280;33751;50.816;-1.214;2023-04-28T05:30:13;100868.38;;;25.22;100.00
47983;BME280;33751;50.816;-1.214;2023-04-28T05:32:40;100873.01;;;25.15;100.00
47983;BME280;33751;50.816;-1.214;2023-04-28T05:35:07;100877.06;;;25.16;100.00
47983;BME280;33751;50.816;-1.214;2023-04-28T05:37:34;100874.30;;;24.77;100.00
47983;BME280;33751;50.816;-1.214;2023-04-28T05:40:00;100878.06;;;25.08;100.00
47983;BME280;33751;50.816;-1.214;2023-04-28T05:42:27;100880.15;;;24.60;100.00
47983;BME280;33751;50.816;-1.214;2023-04-28T05:44:53;100885.61;;;25.26;100.00
47983;BME280;33751;50.816;-1.214;2023-04-28T05:47:20;100889.66;;;25.41;100.00
47983;BME280;33751;50.816;-1.214;2023-04-28T05:49:46;100892.28;;;25.55;100.00
47983;BME280;33751;50.816;-1.214;2023-04-28T05:52:12;100893.03;;;25.55;100.00
47983;BME280;33751;50.816;-1.214;2023-04-28T05:54:39;100897.06;;;25.75;100.00
47983;BME280;33751;50.816;-1.214;2023-04-28T05:57:06;100894.37;;;26.04;100.00
47983;BME280;33751;50.816;-1.214;2023-04-28T05:59:33;100896.38;;;25.92;100.00
47983;BME280;33751;50.816;-1.214;2023-04-28T06:01:59;100894.69;;;26.00;100.00
47983;BME280;33751;50.816;-1.214;2023-04-28T06:04:26;100896.76;;;26.45;100.00
47983;BME280;33751;50.816;-1.214;2023-04-28T06:06:53;100899.06;;;26.22;100.00
47983;BME280;33751;50.816;-1.214;2023-04-28T06:09:19;100901.23;;;26.54;100.00
47983;BME280;33751;50.816;-1.214;2023-04-28T06:11:46;100904.02;;;26.18;100.00
47983;BME280;33751;50.816;-1.214;2023-04-28T06:14:12;100908.48;;;26.32;100.00
47983;BME280;33751;50.816;-1.214;2023-04-28T06:16:39;100908.96;;;26.35;100.00
47983;BME280;33751;50.816;-1.214;2023-04-28T06:19:05;100914.05;;;26.52;100.00
47983;BME280;33751;50.816;-1.214;2023-04-28T06:21:32;100910.91;;;25.95;100.00
47983;BME280;33751;50.816;-1.214;2023-04-28T06:23:58;100914.83;;;26.51;100.00
47983;BME280;33751;50.816;-1.214;2023-04-28T06:26:25;100920.69;;;26.56;100.00
47983;BME280;33751;50.816;-1.214;2023-04-28T06:28:52;100923.23;;;26.51;100.00
47983;BME280;33751;50.816;-1.214;2023-04-28T06:31:19;100925.58;;;27.02;100.00
47983;BME280;33751;50.816;-1.214;2023-04-28T06:33:45;100928.63;;;26.57;100.00
47983;BME280;33751;50.816;-1.214;2023-04-28T06:36:12;100928.13;;;26.81;100.00
47983;BME280;33751;50.816;-1.214;2023-04-28T06:38:38;100937.50;;;26.35;100.00
47983;BME280;33751;50.816;-1.214;2023-04-28T06:41:05;100942.81;;;26.91;100.00
47983;BME280;33751;50.816;-1.214;2023-04-28T06:43:32;100948.29;;;26.55;100.00
47983;BME280;33751;50.816;-1.214;2023-04-28T06:45:58;100945.89;;;26.87;100.00
47983;BME280;33751;50.816;-1.214;2023-04-28T06:48:25;100949.53;;;26.64;100.00
47983;BME280;33751;50.816;-1.214;2023-04-28T06:50:51;100952.29;;;26.63;100.00
47983;BME280;33751;50.816;-1.214;2023-04-28T06:53:18;100954.48;;;26.68;100.00
47983;BME280;33751;50.816;-1.214;2023-04-28T06:55:44;100957.13;;;26.92;100.00
47983;BME280;33751;50.816;-1.214;2023-04-28T06:58:11;100960.42;;;26.73;100.00
47983;BME280;33751;50.816;-1.214;2023-04-28T07:00:38;100961.08;;;27.12;100.00
47983;BME280;33751;50.816;-1.214;2023-04-28T07:03:05;100962.38;;;27.03;100.00
47983;BME280;33751;50.816;-1.214;2023-04-28T07:05:31;100958.20;;;26.98;100.00
47983;BME280;33751;50.816;-1.214;2023-04-28T07:07:58;100958.83;;;27.00;100.00
47983;BME280;33751;50.816;-1.214;2023-04-28T07:10:25;100958.48;;;26.86;100.00
47983;BME280;33751;50.816;-1.214;2023-04-28T07:12:51;100961.11;;;27.15;100.00
47983;BME280;33751;50.816;-1.214;2023-04-28T07:15:18;100962.62;;;27.38;100.00
47983;BME280;33751;50.816;-1.214;2023-04-28T07:17:44;100962.86;;;27.29;100.00
47983;BME280;33751;50.816;-1.214;2023-04-28T07:20:13;100961.52;;;27.03;100.00
47983;BME280;33751;50.816;-1.214;2023-04-28T07:22:40;100970.49;;;26.26;100.00
47983;BME280;33751;50.816;-1.214;2023-04-28T07:25:07;100968.33;;;26.80;100.00
47983;BME280;33751;50.816;-1.214;2023-04-28T07:27:34;100976.84;;;26.67;100.00
47983;BME280;33751;50.816;-1.214;2023-04-28T07:30:00;100977.59;;;26.72;100.00
47983;BME280;33751;50.816;-1.214;2023-04-28T07:32:27;100979.21;;;26.56;100.00
47983;BME280;33751;50.816;-1.214;2023-04-28T07:34:54;100981.34;;;26.86;100.00
47983;BME280;33751;50.816;-1.214;2023-04-28T07:37:20;100981.47;;;26.52;100.00
47983;BME280;33751;50.816;-1.214;2023-04-28T07:39:47;100986.54;;;26.34;100.00
47983;BME280;33751;50.816;-1.214;2023-04-28T07:42:13;100985.41;;;26.62;100.00
47983;BME280;33751;50.816;-1.214;2023-04-28T07:44:40;100989.61;;;26.58;100.00
47983;BME280;33751;50.816;-1.214;2023-04-28T07:47:07;100995.05;;;26.43;100.00
47983;BME280;33751;50.816;-1.214;2023-04-28T07:49:35;100996.77;;;26.39;100.00
47983;BME280;33751;50.816;-1.214;2023-04-28T07:52:02;100995.04;;;26.37;100.00
47983;BME280;33751;50.816;-1.214;2023-04-28T07:54:28;101000.82;;;26.44;100.00
47983;BME280;33751;50.816;-1.214;2023-04-28T07:56:55;101002.92;;;26.28;100.00
47983;BME280;33751;50.816;-1.214;2023-04-28T07:59:22;101004.94;;;26.09;100.00
47983;BME280;33751;50.816;-1.214;2023-04-28T08:01:49;101015.31;;;26.26;100.00
47983;BME280;33751;50.816;-1.214;2023-04-28T08:04:15;101016.21;;;26.35;100.00
47983;BME280;33751;50.816;-1.214;2023-04-28T08:06:42;101015.70;;;26.03;100.00
47983;BME280;33751;50.816;-1.214;2023-04-28T08:09:08;101020.70;;;26.31;100.00
47983;BME280;33751;50.816;-1.214;2023-04-28T08:11:35;101017.15;;;26.22;100.00
47983;BME280;33751;50.816;-1.214;2023-04-28T08:14:01;101020.46;;;26.53;100.00
47983;BME280;33751;50.816;-1.214;2023-04-28T08:16:29;101029.82;;;25.98;100.00
47983;BME280;33751;50.816;-1.214;2023-04-28T08:18:56;101024.01;;;26.51;100.00
47983;BME280;33751;50.816;-1.214;2023-04-28T08:21:23;101022.43;;;26.69;100.00
47983;BME280;33751;50.816;-1.214;2023-04-28T08:23:50;101030.54;;;25.97;100.00
47983;BME280;33751;50.816;-1.214;2023-04-28T08:26:17;101022.42;;;26.63;100.00
47983;BME280;33751;50.816;-1.214;2023-04-28T08:28:43;101026.23;;;26.77;100.00
47983;BME280;33751;50.816;-1.214;2023-04-28T08:31:10;101027.26;;;26.51;100.00
47983;BME280;33751;50.816;-1.214;2023-04-28T08:33:36;101028.37;;;26.87;100.00
47983;BME280;33751;50.816;-1.214;2023-04-28T08:36:04;101031.52;;;26.76;100.00
47983;BME280;33751;50.816;-1.214;2023-04-28T08:38:30;101029.55;;;26.32;100.00
47983;BME280;33751;50.816;-1.214;2023-04-28T08:40:57;101027.52;;;26.83;100.00
47983;BME280;33751;50.816;-1.214;2023-04-28T08:43:24;101035.39;;;27.10;100.00
47983;BME280;33751;50.816;-1.214;2023-04-28T08:45:51;101036.72;;;26.60;100.00
47983;BME280;33751;50.816;-1.214;2023-04-28T08:48:19;101043.33;;;26.77;100.00
47983;BME280;33751;50.816;-1.214;2023-04-28T08:50:48;101047.66;;;26.96;100.00
47983;BME280;33751;50.816;-1.214;2023-04-28T08:53:21;101048.14;;;27.08;100.00
47983;BME280;33751;50.816;-1.214;2023-04-28T08:55:51;101053.17;;;27.19;100.00
47983;BME280;33751;50.816;-1.214;2023-04-28T08:58:21;101057.79;;;27.19;100.00
47983;BME280;33751;50.816;-1.214;2023-04-28T09:00:48;101050.68;;;27.25;100.00
47983;BME280;33751;50.816;-1.214;2023-04-28T09:03:15;101054.72;;;27.70;100.00
47983;BME280;33751;50.816;-1.214;2023-04-28T09:05:42;101062.17;;;27.63;100.00
47983;BME280;33751;50.816;-1.214;2023-04-28T09:08:09;101061.64;;;27.71;100.00
47983;BME280;33751;50.816;-1.214;2023-04-28T09:10:36;101062.96;;;27.64;100.00
47983;BME280;33751;50.816;-1.214;2023-04-28T09:13:03;101062.19;;;27.48;100.00
47983;BME280;33751;50.816;-1.214;2023-04-28T09:15:31;101066.02;;;27.77;100.00
47983;BME280;33751;50.816;-1.214;2023-04-28T09:17:58;101065.63;;;27.26;100.00
47983;BME280;33751;50.816;-1.214;2023-04-28T09:20:26;101069.53;;;27.74;100.00
47983;BME280;33751;50.816;-1.214;2023-04-28T09:22:55;101073.03;;;27.78;100.00
47983;BME280;33751;50.816;-1.214;2023-04-28T09:25:37;101077.61;;;27.96;100.00
47983;BME280;33751;50.816;-1.214;2023-04-28T09:28:18;101078.92;;;27.79;100.00
47983;BME280;33751;50.816;-1.214;2023-04-28T09:30:45;101082.47;;;27.98;100.00
47983;BME280;33751;50.816;-1.214;2023-04-28T09:33:13;101084.86;;;27.88;100.00
47983;BME280;33751;50.816;-1.214;2023-04-28T09:35:41;101089.56;;;27.48;100.00
47983;BME280;33751;50.816;-1.214;2023-04-28T09:38:08;101091.95;;;27.57;100.00
47983;BME280;33751;50.816;-1.214;2023-04-28T09:40:49;101091.41;;;27.80;100.00
47983;BME280;33751;50.816;-1.214;2023-04-28T09:43:23;101097.81;;;28.06;100.00
47983;BME280;33751;50.816;-1.214;2023-04-28T09:45:50;101105.31;;;27.82;100.00
47983;BME280;33751;50.816;-1.214;2023-04-28T09:48:16;101108.20;;;28.16;100.00
47983;BME280;33751;50.816;-1.214;2023-04-28T09:50:43;101107.81;;;28.06;100.00
47983;BME280;33751;50.816;-1.214;2023-04-28T09:53:10;101114.06;;;28.14;100.00
47983;BME280;33751;50.816;-1.214;2023-04-28T09:55:40;101115.37;;;27.68;100.00
47983;BME280;33751;50.816;-1.214;2023-04-28T09:58:11;101123.27;;;27.72;100.00
47983;BME280;33751;50.816;-1.214;2023-04-28T10:00:39;101125.85;;;27.94;100.00
47983;BME280;33751;50.816;-1.214;2023-04-28T10:03:08;101126.52;;;28.31;100.00
47983;BME280;33751;50.816;-1.214;2023-04-28T10:05:36;101125.58;;;28.28;100.00
47983;BME280;33751;50.816;-1.214;2023-04-28T10:08:03;101132.51;;;28.29;100.00
47983;BME280;33751;50.816;-1.214;2023-04-28T10:10:30;101132.85;;;27.99;100.00
47983;BME280;33751;50.816;-1.214;2023-04-28T10:12:58;101138.47;;;27.93;100.00
47983;BME280;33751;50.816;-1.214;2023-04-28T10:15:25;101142.83;;;28.09;100.00
47983;BME280;33751;50.816;-1.214;2023-04-28T10:17:53;101147.44;;;27.97;100.00
47983;BME280;33751;50.816;-1.214;2023-04-28T10:20:20;101150.00;;;28.51;100.00
47983;BME280;33751;50.816;-1.214;2023-04-28T10:22:59;101154.13;;;28.20;100.00
47983;BME280;33751;50.816;-1.214;2023-04-28T10:25:34;101153.80;;;28.49;100.00
47983;BME280;33751;50.816;-1.214;2023-04-28T10:28:05;101155.73;;;28.35;100.00
47983;BME280;33751;50.816;-1.214;2023-04-28T10:30:32;101159.23;;;28.65;100.00
47983;BME280;33751;50.816;-1.214;2023-04-28T10:33:36;101160.47;;;28.88;100.00
47983;BME280;33751;50.816;-1.214;2023-04-28T10:36:04;101164.53;;;28.49;100.00
47983;BME280;33751;50.816;-1.214;2023-04-28T10:38:31;101171.27;;;28.67;100.00
47983;BME280;33751;50.816;-1.214;2023-04-28T10:40:58;101170.88;;;28.77;100.00
47983;BME280;33751;50.816;-1.214;2023-04-28T10:43:36;101170.50;;;28.89;100.00
47983;BME280;33751;50.816;-1.214;2023-04-28T10:46:06;101170.72;;;28.78;100.00
47983;BME280;33751;50.816;-1.214;2023-04-28T10:48:53;101173.91;;;28.98;100.00
47983;BME280;33751;50.816;-1.214;2023-04-28T10:51:22;101171.26;;;29.02;100.00
47983;BME280;33751;50.816;-1.214;2023-04-28T10:54:21;101167.99;;;29.45;100.00
47983;BME280;33751;50.816;-1.214;2023-04-28T10:57:21;101170.26;;;29.82;100.00
47983;BME280;33751;50.816;-1.214;2023-04-28T10:59:48;101169.91;;;29.59;100.00
47983;BME280;33751;50.816;-1.214;2023-04-28T11:02:48;101167.17;;;29.84;100.00
47983;BME280;33751;50.816;-1.214;2023-04-28T11:05:16;101166.14;;;29.90;100.00
47983;BME280;33751;50.816;-1.214;2023-04-28T11:08:32;101167.55;;;30.25;100.00
47983;BME280;33751;50.816;-1.214;2023-04-28T11:11:18;101163.58;;;29.59;100.00
47983;BME280;33751;50.816;-1.214;2023-04-28T11:13:46;101169.34;;;29.29;100.00
47983;BME280;33751;50.816;-1.214;2023-04-28T11:16:15;101171.91;;;29.59;100.00
47983;BME280;33751;50.816;-1.214;2023-04-28T11:18:49;101168.32;;;29.83;100.00
47983;BME280;33751;50.816;-1.214;2023-04-28T11:21:16;101165.86;;;29.48;100.00
47983;BME280;33751;50.816;-1.214;2023-04-28T11:23:44;101168.28;;;29.66;100.00
47983;BME280;33751;50.816;-1.214;2023-04-28T11:26:11;101175.78;;;29.93;100.00
47983;BME280;33751;50.816;-1.214;2023-04-28T11:28:46;101171.03;;;29.95;100.00
47983;BME280;33751;50.816;-1.214;2023-04-28T11:31:13;101163.88;;;29.62;100.00
47983;BME280;33751;50.816;-1.214;2023-04-28T11:33:41;101164.78;;;29.78;100.00
47983;BME280;33751;50.816;-1.214;2023-04-28T11:36:21;101173.76;;;29.81;100.00
47983;BME280;33751;50.816;-1.214;2023-04-28T11:38:48;101177.23;;;29.85;100.00
47983;BME280;33751;50.816;-1.214;2023-04-28T11:41:14;101180.43;;;29.45;100.00
47983;BME280;33751;50.816;-1.214;2023-04-28T11:43:41;101179.66;;;29.16;100.00
47983;BME280;33751;50.816;-1.214;2023-04-28T11:46:08;101181.17;;;28.76;100.00
47983;BME280;33751;50.816;-1.214;2023-04-28T11:48:35;101181.00;;;29.00;100.00
47983;BME280;33751;50.816;-1.214;2023-04-28T11:51:02;101181.87;;;28.28;100.00
47983;BME280;33751;50.816;-1.214;2023-04-28T11:53:45;101183.11;;;27.51;100.00
47983;BME280;33751;50.816;-1.214;2023-04-28T11:56:12;101177.68;;;28.68;100.00
47983;BME280;33751;50.816;-1.214;2023-04-28T11:58:39;101183.62;;;28.82;100.00
47983;BME280;33751;50.816;-1.214;2023-04-28T12:01:06;101186.69;;;28.39;100.00
47983;BME280;33751;50.816;-1.214;2023-04-28T12:03:41;101191.89;;;27.87;100.00
47983;BME280;33751;50.816;-1.214;2023-04-28T12:06:08;101190.01;;;28.19;100.00
47983;BME280;33751;50.816;-1.214;2023-04-28T12:08:35;101190.67;;;28.49;100.00
47983;BME280;33751;50.816;-1.214;2023-04-28T12:11:10;101198.30;;;28.59;100.00
47983;BME280;33751;50.816;-1.214;2023-04-28T12:13:38;101198.65;;;28.62;100.00
47983;BME280;33751;50.816;-1.214;2023-04-28T12:16:07;101199.66;;;28.93;100.00
47983;BME280;33751;50.816;-1.214;2023-04-28T12:18:34;101215.94;;;27.31;100.00
47983;BME280;33751;50.816;-1.214;2023-04-28T12:21:02;101207.63;;;28.21;100.00
47983;BME280;33751;50.816;-1.214;2023-04-28T12:23:29;101212.74;;;28.45;100.00
47983;BME280;33751;50.816;-1.214;2023-04-28T12:25:57;101211.79;;;28.32;100.00
47983;BME280;33751;50.816;-1.214;2023-04-28T12:28:35;101211.60;;;28.44;100.00
47983;BME280;33751;50.816;-1.214;2023-04-28T12:31:03;101215.90;;;28.24;100.00
47983;BME280;33751;50.816;-1.214;2023-04-28T12:33:30;101212.90;;;28.24;100.00
47983;BME280;33751;50.816;-1.214;2023-04-28T12:35:57;101223.78;;;27.82;100.00